Strona główna
METAR-TAF:

METAR-TAF

Lotnisko :

Wilmington, Ohio, Stany Zjednoczone

Szerokość geograficzna: 39-25-42N, Długość geograficzna: 083-46-45W, wysokość: 328 m

Aktualna obserwacja pogody

Raport powstał 28 minut temu, godzina 12:54 UTC
Wiatr 10 kt od północny wschód
Temperatura 16°C
Wilgotność 82%
Ciśnienie 1024 hPa
Widzialność: 16.1 km
bezchmurnie

METAR: KILN 241254Z AUTO 05010KT 10SM CLR 16/13 A3023 RMK AO2 SLP237 T01560133

czas: 09:22 (13:22 UTC)

Prognoza

Raport powstał 2 godziny i 2 minut temu, godzina 11:20 UTC
Prognoza ważna od 24 godzina 12 UTC do 25 godzina 12 UTC
Wiatr 6 kt od północny wschód
Widzialność: 10 km
bezchmurnie
Od 24 godzina 1500 UTC
Wiatr 11 kt od wschodnio-północny wschód
Widzialność: 10 km
Mało chmury na wysokości 4000 ft
Od 24 godzina 2300 UTC
Wiatr 7 kt od wschodnio-północny wschód
Widzialność: 10 km
bezchmurnie

TAF: KILN 241120Z 2412/2512 04006KT P6SM SKC FM241500 06011KT P6SM FEW040 FM242300 06007KT P6SM SKC

Obserwacja i prognoza pogody dla ponad 4000 lotnisk (raport METAR i TAF).

Dostępne stacje oznaczono żółtymi i czerwonymi punktami na mapie.

Najedź kursorem aby zobaczyć nazwę stacji.

Kliknij aby zobaczyć obserwacje i prognozy pogody.

Aby zmienić mapę: kliknij na zielony przycisk z czarnym krzyżykiem, aby powiększyć; na zielony przycisk z myślnikiem, aby pomniejszyć; na zielone strzałki, aby przejść do map sąsiednich.


METAR-TAF: